Apopka, Florida
Current Conditions -  °F | °C
As of 10:53 AM on Wednesday 26 Nov 2014 (Local Time) from KORL Reporting Station
Light Rain Light Rain  
Wind Chill: 54°   Ceiling: 900
Heat Index: 54°   Visibility: 10mi
Dew Point: 52°   Wind: 13mph
Humidity: 93%   Direction: 320°NW
Pressure: 30.15"   Gusts: NA
Location:  28.67°N, 81.51°W
Report Text: KORL 261553Z 32011KT 10SM -RA BKN009 OVC014 12/11 A3015 RMK AO2 RAE06B21 PRESRR SLP214 P0001 T01220111
Loading
Personal Weather Stations






























Interactive Weather Map New forecast layout! Learn more

10-Day Weather Forecast

Advertisements
Track Severe Weather on mobile